createdAt,value
2023-05-02T00:01:31.987Z,6.50
2023-05-02T00:04:35.272Z,3.40
2023-05-02T00:07:38.828Z,4.65
2023-05-02T00:10:41.943Z,4.20
2023-05-02T00:13:44.962Z,5.18
2023-05-02T00:16:48.007Z,4.07
2023-05-02T00:19:50.845Z,4.95
2023-05-02T00:22:54.164Z,4.55
2023-05-02T00:25:56.886Z,4.97
2023-05-02T00:29:00.845Z,4.03
2023-05-02T00:32:03.656Z,6.23
2023-05-02T00:35:07.364Z,4.95
2023-05-02T00:38:10.725Z,6.12
2023-05-02T00:41:14.224Z,4.78
2023-05-02T00:44:17.334Z,4.15
2023-05-02T00:47:21.179Z,4.97
2023-05-02T00:50:27.518Z,6.43
2023-05-02T00:53:31.469Z,5.85
2023-05-02T00:56:34.378Z,6.45
2023-05-02T00:59:38.086Z,6.87
2023-05-02T01:03:00.793Z,5.83
2023-05-02T01:06:18.110Z,5.85
2023-05-02T01:10:01.439Z,4.78
2023-05-02T01:13:09.356Z,6.53
2023-05-02T01:16:14.474Z,5.10
2023-05-02T01:19:45.160Z,4.30
2023-05-02T01:22:49.205Z,5.57
2023-05-02T01:26:09.836Z,4.75
2023-05-02T01:29:16.409Z,5.12
2023-05-02T01:32:22.402Z,4.60
2023-05-02T01:35:27.775Z,4.00
2023-05-02T01:38:34.079Z,4.25
2023-05-02T01:41:38.296Z,4.75
2023-05-02T01:44:43.198Z,4.28
2023-05-02T01:47:47.149Z,5.12
2023-05-02T01:50:52.053Z,5.30
2023-05-02T01:53:54.830Z,4.60
2023-05-02T01:56:59.222Z,6.07
2023-05-02T02:00:04.269Z,4.55
2023-05-02T02:03:17.313Z,4.22
2023-05-02T02:06:22.154Z,6.07
2023-05-02T02:09:24.939Z,5.03
2023-05-02T02:12:41.914Z,4.62
2023-05-02T02:15:49.248Z,4.45
2023-05-02T02:18:56.720Z,5.07
2023-05-02T02:22:01.918Z,5.13
2023-05-02T02:25:08.460Z,4.82
2023-05-02T02:28:11.904Z,7.20
2023-05-02T02:31:14.569Z,4.97
2023-05-02T02:34:18.051Z,3.80
2023-05-02T02:37:30.392Z,9.23
2023-05-02T02:40:48.031Z,6.68
2023-05-02T02:44:24.820Z,6.07
2023-05-02T02:47:30.082Z,5.05
2023-05-02T02:50:35.855Z,5.45
2023-05-02T02:53:50.902Z,8.10
2023-05-02T02:57:02.386Z,5.40
2023-05-02T03:00:27.618Z,6.62
2023-05-02T03:03:32.764Z,6.65
2023-05-02T03:06:36.287Z,7.25
2023-05-02T03:09:47.597Z,8.00
2023-05-02T03:12:51.147Z,7.75
2023-05-02T03:15:59.434Z,7.78
2023-05-02T03:19:03.747Z,6.50
2023-05-02T03:22:08.595Z,9.38
2023-05-02T03:25:11.878Z,8.43
2023-05-02T03:28:18.235Z,4.60
2023-05-02T03:31:24.674Z,5.18
2023-05-02T03:34:28.830Z,8.50
2023-05-02T03:37:34.578Z,7.22
2023-05-02T03:40:37.427Z,5.23
2023-05-02T03:43:41.018Z,7.07
2023-05-02T03:46:43.809Z,9.45
2023-05-02T03:49:47.106Z,8.20
2023-05-02T03:52:49.979Z,7.62
2023-05-02T03:55:53.804Z,5.87
2023-05-02T03:58:57.232Z,8.02
2023-05-02T04:02:00.552Z,7.05
2023-05-02T04:05:05.362Z,6.15
2023-05-02T04:08:08.707Z,9.30
2023-05-02T04:11:12.399Z,6.80
2023-05-02T04:14:15.191Z,5.40
2023-05-02T04:17:19.070Z,6.80
2023-05-02T04:20:22.132Z,7.35
2023-05-02T04:23:25.722Z,7.53
2023-05-02T04:26:29.655Z,5.73
2023-05-02T04:29:33.526Z,10.38
2023-05-02T04:32:37.129Z,6.45
2023-05-02T04:35:41.271Z,8.32
2023-05-02T04:38:47.375Z,10.45
2023-05-02T04:41:51.059Z,4.53
2023-05-02T04:44:53.859Z,5.97
2023-05-02T04:47:57.122Z,9.80
2023-05-02T04:51:00.268Z,9.65
2023-05-02T04:54:05.087Z,6.32
2023-05-02T04:57:08.221Z,7.07
2023-05-02T05:00:12.516Z,7.32
2023-05-02T05:03:15.509Z,6.53
2023-05-02T05:06:19.652Z,4.90
2023-05-02T05:09:22.596Z,6.75
2023-05-02T05:12:26.397Z,6.70
2023-05-02T05:15:29.406Z,5.80
2023-05-02T05:18:34.338Z,6.62
2023-05-02T05:21:37.249Z,5.95
2023-05-02T05:24:40.752Z,7.03
2023-05-02T05:27:43.833Z,7.70
2023-05-02T05:30:47.461Z,6.37
2023-05-02T05:33:51.740Z,5.80
2023-05-02T05:36:55.640Z,6.20
2023-05-02T05:39:58.432Z,12.20
2023-05-02T05:43:01.475Z,5.40
2023-05-02T05:46:04.756Z,7.43
2023-05-02T05:49:08.177Z,11.02
2023-05-02T05:52:11.640Z,7.82
2023-05-02T05:55:14.978Z,7.87
2023-05-02T05:58:18.452Z,8.10
2023-05-02T06:01:21.647Z,9.43
2023-05-02T06:04:25.113Z,5.80
2023-05-02T06:07:28.165Z,7.72
2023-05-02T06:10:31.760Z,7.70
2023-05-02T06:13:34.588Z,7.43
2023-05-02T06:16:38.036Z,9.45
2023-05-02T06:19:41.418Z,11.25
2023-05-02T06:22:44.533Z,7.12
2023-05-02T06:25:47.256Z,5.80
2023-05-02T06:28:50.218Z,7.63
2023-05-02T06:31:56.316Z,6.03
2023-05-02T06:34:59.582Z,5.68
2023-05-02T06:38:02.206Z,6.53
2023-05-02T06:41:05.091Z,9.00
2023-05-02T06:44:07.906Z,5.93
2023-05-02T06:47:11.072Z,6.60
2023-05-02T06:50:13.929Z,7.12
2023-05-02T06:53:17.030Z,6.43
2023-05-02T06:56:19.709Z,8.32
2023-05-02T06:59:22.777Z,5.07
2023-05-02T07:02:25.934Z,6.05
2023-05-02T07:05:29.997Z,4.32
2023-05-02T07:08:32.865Z,6.18
2023-05-02T07:11:36.348Z,5.55
2023-05-02T07:14:39.610Z,7.63
2023-05-02T07:17:42.704Z,9.60
2023-05-02T07:20:45.400Z,8.80
2023-05-02T07:23:57.829Z,6.72
2023-05-02T07:27:00.980Z,6.70
2023-05-02T07:30:04.548Z,6.07
2023-05-02T07:33:07.810Z,7.18
2023-05-02T07:36:10.984Z,9.40
2023-05-02T07:39:13.761Z,7.05
2023-05-02T07:42:16.925Z,5.93
2023-05-02T07:45:19.796Z,6.37
2023-05-02T07:48:23.475Z,8.15
2023-05-02T07:51:27.198Z,9.60
2023-05-02T07:54:30.567Z,6.15
2023-05-02T07:57:37.852Z,8.43
2023-05-02T08:00:41.154Z,11.63
2023-05-02T08:03:45.097Z,10.95
2023-05-02T08:06:48.035Z,10.27
2023-05-02T08:09:51.689Z,9.98
2023-05-02T08:12:54.556Z,10.38
2023-05-02T08:15:58.642Z,8.67
2023-05-02T08:19:01.535Z,5.80
2023-05-02T08:22:04.535Z,8.07
2023-05-02T08:25:07.482Z,6.53
2023-05-02T08:28:10.551Z,5.95
2023-05-02T08:31:13.269Z,9.63
2023-05-02T08:34:16.651Z,8.07
2023-05-02T08:37:19.613Z,8.27
2023-05-02T08:40:37.843Z,6.03
2023-05-02T08:43:44.212Z,6.20
2023-05-02T08:46:50.207Z,6.60
2023-05-02T08:49:56.642Z,10.43
2023-05-02T08:53:00.661Z,8.02
2023-05-02T08:56:04.091Z,10.10
2023-05-02T08:59:08.354Z,9.68
2023-05-02T09:02:24.134Z,8.10
2023-05-02T09:05:27.642Z,6.75
2023-05-02T09:08:30.710Z,7.53
2023-05-02T09:11:33.998Z,5.12
2023-05-02T09:14:36.677Z,6.00
2023-05-02T09:17:41.874Z,7.10
2023-05-02T09:20:45.213Z,7.43
2023-05-02T09:24:03.556Z,6.12
2023-05-02T09:27:06.701Z,6.45
2023-05-02T09:30:39.344Z,9.90
2023-05-02T09:33:43.201Z,5.80
2023-05-02T09:36:48.241Z,5.47
2023-05-02T09:40:07.208Z,6.68
2023-05-02T09:43:17.339Z,7.45
2023-05-02T09:46:20.575Z,5.45
2023-05-02T09:49:45.327Z,6.63
2023-05-02T09:53:02.792Z,4.80
2023-05-02T09:56:06.209Z,5.65
2023-05-02T09:59:14.882Z,6.53
2023-05-02T10:02:18.309Z,4.95
2023-05-02T10:05:22.195Z,7.17
2023-05-02T10:08:28.996Z,5.15
2023-05-02T10:11:34.216Z,6.30
2023-05-02T10:14:41.837Z,5.55
2023-05-02T10:17:53.371Z,7.90
2023-05-02T10:21:00.493Z,5.03
2023-05-02T10:24:04.484Z,5.05
2023-05-02T10:27:07.878Z,4.93
2023-05-02T10:30:13.914Z,6.55
2023-05-02T10:33:19.191Z,5.18
2023-05-02T10:36:23.888Z,8.80
2023-05-02T10:39:27.919Z,6.90
2023-05-02T10:42:31.721Z,5.25
2023-05-02T10:45:37.994Z,5.80
2023-05-02T10:48:41.214Z,7.68
2023-05-02T10:51:43.990Z,8.97
2023-05-02T10:54:47.066Z,7.15
2023-05-02T10:58:01.535Z,8.70
2023-05-02T11:01:32.497Z,7.07
2023-05-02T11:05:07.183Z,7.05
2023-05-02T11:08:16.883Z,6.53
2023-05-02T11:11:43.637Z,4.65
2023-05-02T11:14:48.735Z,11.12
2023-05-02T11:18:02.025Z,6.72
2023-05-02T11:21:32.248Z,6.85
2023-05-02T11:24:43.002Z,6.40
2023-05-02T11:27:49.432Z,4.50
2023-05-02T11:30:52.126Z,9.73
2023-05-02T11:33:59.831Z,7.15
2023-05-02T11:37:11.882Z,5.25
2023-05-02T11:40:15.442Z,6.27
2023-05-02T11:43:19.374Z,8.77
2023-05-02T11:46:23.190Z,4.50
2023-05-02T11:49:26.027Z,10.52
2023-05-02T11:52:30.866Z,7.57
2023-05-02T11:55:33.620Z,9.47
2023-05-02T11:58:36.721Z,4.68
2023-05-02T12:01:48.642Z,6.87
2023-05-02T12:04:51.738Z,4.50
2023-05-02T12:07:54.639Z,7.55
2023-05-02T12:10:57.794Z,8.03
2023-05-02T12:14:00.666Z,6.62
2023-05-02T12:17:04.403Z,5.90
2023-05-02T12:20:09.542Z,6.80
2023-05-02T12:23:13.411Z,5.68
2023-05-02T12:26:25.744Z,8.30
2023-05-02T12:29:42.027Z,8.40
2023-05-02T12:32:45.803Z,6.22
2023-05-02T12:35:49.148Z,10.75
2023-05-02T12:39:02.311Z,6.80
2023-05-02T12:42:12.515Z,6.10
2023-05-02T12:45:18.871Z,7.07
2023-05-02T12:48:27.304Z,6.03
2023-05-02T12:51:31.734Z,6.12
2023-05-02T12:54:34.871Z,6.00
2023-05-02T12:57:37.594Z,7.10
2023-05-02T13:00:45.560Z,6.97
2023-05-02T13:03:51.665Z,5.97
2023-05-02T13:06:54.987Z,7.40
2023-05-02T13:09:57.692Z,8.85
2023-05-02T13:13:01.186Z,6.33
2023-05-02T13:16:04.202Z,10.93
2023-05-02T13:19:07.511Z,6.75
2023-05-02T13:22:11.739Z,9.55
2023-05-02T13:25:14.978Z,6.53
2023-05-02T13:28:17.693Z,5.50
2023-05-02T13:31:20.924Z,8.05
2023-05-02T13:34:23.689Z,8.38
2023-05-02T13:37:26.983Z,5.72
2023-05-02T13:40:29.862Z,5.32
2023-05-02T13:43:33.446Z,5.50
2023-05-02T13:46:38.083Z,8.98
2023-05-02T13:49:41.375Z,10.73
2023-05-02T13:52:45.918Z,5.87
2023-05-02T13:55:51.304Z,4.62
2023-05-02T13:58:54.247Z,4.97
2023-05-02T14:01:57.217Z,8.45
2023-05-02T14:05:00.306Z,7.47
2023-05-02T14:08:03.225Z,7.97
2023-05-02T14:11:07.373Z,9.73
2023-05-02T14:14:12.680Z,6.20
2023-05-02T14:17:15.905Z,8.68
2023-05-02T14:20:19.062Z,5.15
2023-05-02T14:23:23.244Z,9.00
2023-05-02T14:26:26.624Z,12.52
2023-05-02T14:29:29.794Z,6.80
2023-05-02T14:32:34.451Z,5.35
2023-05-02T14:35:38.738Z,7.62
2023-05-02T14:38:41.646Z,6.65
2023-05-02T14:41:44.723Z,9.20
2023-05-02T14:44:47.512Z,5.60
2023-05-02T14:47:53.323Z,27.73
2023-05-02T14:50:57.518Z,10.40
2023-05-02T14:54:00.704Z,7.85
2023-05-02T14:57:04.035Z,7.18
2023-05-02T15:00:08.759Z,11.87
2023-05-02T15:03:12.424Z,7.75
2023-05-02T15:06:20.302Z,8.70
2023-05-02T15:09:26.677Z,7.18
2023-05-02T15:12:30.049Z,8.50
2023-05-02T15:15:32.831Z,10.00
2023-05-02T15:18:36.132Z,9.25
2023-05-02T15:21:38.788Z,14.82
2023-05-02T15:24:42.090Z,13.95
2023-05-02T15:27:44.794Z,12.35
2023-05-02T15:30:49.665Z,10.77
2023-05-02T15:33:52.584Z,10.98
2023-05-02T15:36:57.951Z,11.38
2023-05-02T15:40:01.695Z,11.77
2023-05-02T15:43:05.795Z,11.40
2023-05-02T15:46:08.920Z,11.23
2023-05-02T15:49:12.043Z,11.12
2023-05-02T15:52:14.664Z,14.20
2023-05-02T15:55:17.997Z,13.75
2023-05-02T15:58:21.245Z,11.57
2023-05-02T16:01:24.474Z,13.77
2023-05-02T16:04:29.331Z,11.55
2023-05-02T16:07:32.316Z,10.85
2023-05-02T16:10:36.756Z,13.85
2023-05-02T16:13:40.651Z,15.73
2023-05-02T16:16:44.723Z,12.33
2023-05-02T16:19:47.655Z,11.98
2023-05-02T16:22:51.606Z,11.93
2023-05-02T16:26:01.813Z,12.37
2023-05-02T16:29:04.800Z,12.63
2023-05-02T16:32:08.567Z,12.50
2023-05-02T16:35:13.284Z,12.15
2023-05-02T16:38:16.462Z,12.93
2023-05-02T16:41:19.667Z,12.30
2023-05-02T16:44:22.680Z,12.57
2023-05-02T16:47:25.869Z,12.17
2023-05-02T16:50:28.629Z,12.93
2023-05-02T16:53:31.998Z,12.80
2023-05-02T16:56:34.929Z,11.95
2023-05-02T16:59:38.210Z,12.30
2023-05-02T17:02:41.185Z,11.70
2023-05-02T17:05:44.318Z,12.85
2023-05-02T17:08:47.068Z,12.43
2023-05-02T17:11:50.465Z,12.77
2023-05-02T17:14:53.501Z,12.15
2023-05-02T17:17:56.721Z,14.00
2023-05-02T17:21:00.931Z,13.70
2023-05-02T17:24:05.493Z,13.00
2023-05-02T17:27:08.428Z,13.80
2023-05-02T17:30:13.737Z,12.37
2023-05-02T17:33:16.669Z,13.23
2023-05-02T17:36:19.855Z,13.50
2023-05-02T17:39:23.237Z,13.75
2023-05-02T17:42:26.507Z,12.93
2023-05-02T17:45:29.613Z,12.23
2023-05-02T17:48:32.821Z,12.10
2023-05-02T17:51:36.556Z,13.25
2023-05-02T17:54:39.815Z,11.38
2023-05-02T17:57:42.919Z,14.07
2023-05-02T18:00:46.490Z,13.57
2023-05-02T18:03:50.320Z,11.70
2023-05-02T18:06:53.839Z,12.15
2023-05-02T18:09:57.994Z,11.75
2023-05-02T18:13:00.788Z,12.85
2023-05-02T18:16:05.137Z,10.88
2023-05-02T18:19:08.451Z,12.10
2023-05-02T18:22:13.447Z,12.40
2023-05-02T18:25:17.380Z,11.20
2023-05-02T18:28:20.939Z,12.13
2023-05-02T18:31:24.114Z,12.73
2023-05-02T18:34:32.566Z,11.63
2023-05-02T18:37:35.763Z,12.82
2023-05-02T18:40:39.341Z,13.98
2023-05-02T18:43:42.860Z,14.18
2023-05-02T18:46:46.289Z,12.70
2023-05-02T18:49:50.617Z,11.13
2023-05-02T18:52:54.078Z,11.70
2023-05-02T18:55:58.168Z,12.15
2023-05-02T18:59:02.315Z,12.23
2023-05-02T19:02:05.735Z,11.93
2023-05-02T19:05:10.290Z,13.40
2023-05-02T19:08:13.514Z,12.80
2023-05-02T19:11:17.827Z,14.10
2023-05-02T19:14:21.302Z,11.82
2023-05-02T19:17:27.131Z,14.68
2023-05-02T19:20:30.712Z,12.33
2023-05-02T19:23:36.204Z,12.37
2023-05-02T19:26:39.780Z,12.18
2023-05-02T19:29:44.644Z,14.93
2023-05-02T19:32:48.358Z,13.05
2023-05-02T19:35:54.772Z,14.07
2023-05-02T19:39:01.429Z,13.25
2023-05-02T19:42:05.814Z,11.25
2023-05-02T19:45:10.612Z,11.98
2023-05-02T19:48:14.745Z,12.77
2023-05-02T19:51:25.462Z,12.63
2023-05-02T19:54:29.007Z,12.93
2023-05-02T19:57:32.435Z,13.95
2023-05-02T20:00:36.096Z,12.57
2023-05-02T20:03:47.299Z,15.07
2023-05-02T20:06:50.442Z,15.27
2023-05-02T20:09:53.890Z,15.77
2023-05-02T20:12:56.921Z,14.90
2023-05-02T20:16:00.372Z,15.13
2023-05-02T20:19:04.856Z,14.57
2023-05-02T20:22:08.365Z,12.60
2023-05-02T20:25:12.102Z,14.10
2023-05-02T20:28:15.696Z,15.43
2023-05-02T20:31:18.456Z,13.70
2023-05-02T20:34:22.166Z,15.10
2023-05-02T20:37:25.779Z,13.37
2023-05-02T20:40:30.902Z,14.07
2023-05-02T20:43:35.596Z,14.25
2023-05-02T20:46:38.675Z,14.27
2023-05-02T20:49:41.493Z,15.50
2023-05-02T20:52:45.216Z,15.00
2023-05-02T20:55:49.122Z,14.57
2023-05-02T20:58:53.196Z,15.45
2023-05-02T21:01:57.127Z,14.38
2023-05-02T21:05:00.510Z,14.27
2023-05-02T21:08:03.893Z,14.63
2023-05-02T21:11:17.241Z,15.48
2023-05-02T21:14:23.398Z,15.05
2023-05-02T21:17:26.689Z,14.30
2023-05-02T21:20:29.876Z,14.18
2023-05-02T21:23:33.402Z,13.00
2023-05-02T21:26:36.186Z,13.10
2023-05-02T21:29:39.161Z,13.38
2023-05-02T21:32:42.658Z,14.45
2023-05-02T21:35:46.572Z,12.10
2023-05-02T21:38:49.263Z,11.50
2023-05-02T21:41:52.308Z,13.02
2023-05-02T21:44:55.419Z,14.35
2023-05-02T21:47:58.504Z,12.07
2023-05-02T21:51:01.310Z,11.90
2023-05-02T21:54:04.700Z,11.87
2023-05-02T21:57:07.370Z,11.88
2023-05-02T22:00:13.327Z,13.32
2023-05-02T22:03:17.026Z,11.25
2023-05-02T22:06:20.871Z,11.32
2023-05-02T22:09:24.023Z,15.90
2023-05-02T22:12:27.005Z,12.10
2023-05-02T22:15:30.907Z,11.38
2023-05-02T22:18:33.515Z,10.23
2023-05-02T22:21:36.564Z,12.68
2023-05-02T22:24:39.287Z,12.77
2023-05-02T22:27:42.389Z,12.52
2023-05-02T22:30:45.308Z,10.85
2023-05-02T22:33:50.210Z,10.50
2023-05-02T22:36:53.047Z,10.75
2023-05-02T22:39:56.429Z,11.63
2023-05-02T22:42:59.418Z,11.32
2023-05-02T22:46:02.713Z,10.05
2023-05-02T22:49:07.941Z,11.23
2023-05-02T22:52:11.372Z,11.82
2023-05-02T22:55:14.243Z,12.23
2023-05-02T22:58:17.530Z,10.77
2023-05-02T23:01:20.276Z,12.98
2023-05-02T23:04:23.575Z,10.35
2023-05-02T23:07:26.633Z,11.02
2023-05-02T23:10:29.861Z,11.30
2023-05-02T23:13:32.683Z,9.88
2023-05-02T23:16:35.779Z,8.88
2023-05-02T23:19:38.501Z,10.27
2023-05-02T23:22:46.125Z,10.60
2023-05-02T23:25:49.082Z,12.90
2023-05-02T23:28:52.214Z,11.80
2023-05-02T23:31:55.656Z,10.48
2023-05-02T23:34:58.802Z,11.75
2023-05-02T23:38:07.881Z,11.30
2023-05-02T23:41:11.113Z,11.37
2023-05-02T23:44:13.871Z,9.32
2023-05-02T23:47:17.014Z,10.52
2023-05-02T23:50:19.986Z,10.18
2023-05-02T23:53:22.987Z,10.45
2023-05-02T23:56:26.287Z,10.83
2023-05-02T23:59:29.327Z,10.48
